createdAt,value
2018-05-02T00:01:18.200Z,5.92
2018-05-02T00:07:22.913Z,5.76
2018-05-02T00:13:27.378Z,5.68
2018-05-02T00:19:31.719Z,5.60
2018-05-02T00:25:36.099Z,5.43
2018-05-02T00:31:40.569Z,5.35
2018-05-02T00:37:44.930Z,5.26
2018-05-02T00:43:49.280Z,5.28
2018-05-02T00:49:53.870Z,5.16
2018-05-02T00:55:59.093Z,5.02
2018-05-02T01:02:03.446Z,4.96
2018-05-02T01:08:07.817Z,4.81
2018-05-02T01:14:12.930Z,4.88
2018-05-02T01:20:17.277Z,4.73
2018-05-02T01:26:22.484Z,4.67
2018-05-02T01:32:27.613Z,4.60
2018-05-02T01:38:32.004Z,4.54
2018-05-02T01:44:37.890Z,4.50
2018-05-02T01:50:42.234Z,4.42
2018-05-02T01:56:46.720Z,4.39
2018-05-02T02:02:51.798Z,4.24
2018-05-02T02:08:56.287Z,4.13
2018-05-02T02:15:00.723Z,4.22
2018-05-02T02:21:05.532Z,4.26
2018-05-02T02:27:09.941Z,4.28
2018-05-02T02:33:14.463Z,4.23
2018-05-02T02:39:19.727Z,4.15
2018-05-02T02:45:24.128Z,4.22
2018-05-02T02:51:28.571Z,4.16
2018-05-02T02:57:33.163Z,4.26
2018-05-02T03:03:37.884Z,4.20
2018-05-02T03:09:42.232Z,4.18
2018-05-02T03:15:46.705Z,4.13
2018-05-02T03:21:51.899Z,4.02
2018-05-02T03:27:57.800Z,3.89
2018-05-02T03:34:02.937Z,3.90
2018-05-02T03:40:07.384Z,3.76
2018-05-02T03:46:11.732Z,3.77
2018-05-02T03:52:16.265Z,3.76
2018-05-02T03:58:21.598Z,3.81
2018-05-02T04:04:43.790Z,3.67
2018-05-02T04:10:48.160Z,3.70
2018-05-02T04:16:53.415Z,3.77
2018-05-02T04:22:57.918Z,3.71
2018-05-02T04:29:03.073Z,3.85
2018-05-02T04:35:07.438Z,3.83
2018-05-02T04:41:11.984Z,3.95
2018-05-02T04:47:16.339Z,4.09
2018-05-02T04:53:21.195Z,4.29
2018-05-02T04:59:25.867Z,4.57
2018-05-02T05:05:30.190Z,4.67
2018-05-02T05:11:34.601Z,4.71
2018-05-02T05:17:39.842Z,4.88
2018-05-02T05:23:45.044Z,5.13
2018-05-02T05:29:50.235Z,5.50
2018-05-02T05:35:54.839Z,6.03
2018-05-02T05:41:59.282Z,6.22
2018-05-02T05:48:04.518Z,6.46
2018-05-02T05:54:08.964Z,6.46
2018-05-02T06:00:13.278Z,6.86
2018-05-02T06:06:18.386Z,7.32
2018-05-02T06:12:23.001Z,7.62
2018-05-02T06:18:28.212Z,7.82
2018-05-02T06:24:32.589Z,8.24
2018-05-02T06:30:37.996Z,8.28
2018-05-02T06:36:42.360Z,8.57
2018-05-02T06:42:46.723Z,8.50
2018-05-02T06:48:51.337Z,8.75
2018-05-02T06:54:55.722Z,9.13
2018-05-02T07:01:00.126Z,9.08
2018-05-02T07:07:04.555Z,9.38
2018-05-02T07:13:08.932Z,9.47
2018-05-02T07:19:13.349Z,10.02
2018-05-02T07:25:18.088Z,10.59
2018-05-02T07:31:22.819Z,10.92
2018-05-02T07:37:27.441Z,11.92
2018-05-02T07:43:31.806Z,12.60
2018-05-02T07:49:36.995Z,13.13
2018-05-02T07:55:41.436Z,13.41
2018-05-02T08:01:45.905Z,14.04
2018-05-02T08:07:52.067Z,14.79
2018-05-02T08:13:56.630Z,15.01
2018-05-02T08:20:01.047Z,15.64
2018-05-02T08:26:05.394Z,16.34
2018-05-02T08:32:10.645Z,16.85
2018-05-02T08:38:15.004Z,16.88
2018-05-02T08:44:19.677Z,16.63
2018-05-02T08:50:24.999Z,16.86
2018-05-02T08:56:29.355Z,16.56
2018-05-02T09:02:33.716Z,16.69
2018-05-02T09:08:38.091Z,16.78
2018-05-02T09:14:44.178Z,17.21
2018-05-02T09:20:49.442Z,17.09
2018-05-02T09:26:54.169Z,17.66
2018-05-02T09:32:58.550Z,18.04
2018-05-02T09:39:02.897Z,18.37
2018-05-02T09:45:07.318Z,18.77
2018-05-02T09:51:11.668Z,19.08
2018-05-02T09:57:16.782Z,19.24
2018-05-02T10:03:21.291Z,19.18
2018-05-02T10:09:25.823Z,19.64
2018-05-02T10:15:30.278Z,19.83
2018-05-02T10:21:35.481Z,19.88
2018-05-02T10:27:40.748Z,19.56
2018-05-02T10:33:45.150Z,19.11
2018-05-02T10:39:49.883Z,19.85
2018-05-02T10:45:54.311Z,20.12
2018-05-02T10:51:59.463Z,20.12
2018-05-02T10:58:03.888Z,20.79
2018-05-02T11:04:08.258Z,20.62
2018-05-02T11:10:13.511Z,20.48
2018-05-02T11:16:19.726Z,20.59
2018-05-02T11:22:24.200Z,20.75
2018-05-02T11:28:28.675Z,21.13
2018-05-02T11:34:33.135Z,20.43
2018-05-02T11:40:37.550Z,21.03
2018-05-02T11:46:41.861Z,21.47
2018-05-02T11:52:46.249Z,21.99
2018-05-02T11:58:51.705Z,21.71
2018-05-02T12:04:56.084Z,21.38
2018-05-02T12:11:01.203Z,21.18
2018-05-02T12:17:05.595Z,21.59
2018-05-02T12:23:09.962Z,20.90
2018-05-02T12:29:14.298Z,21.74
2018-05-02T12:35:19.446Z,22.35
2018-05-02T12:41:23.816Z,22.77
2018-05-02T12:47:28.171Z,22.43
2018-05-02T12:53:32.534Z,21.95
2018-05-02T12:59:37.667Z,22.18
2018-05-02T13:05:42.023Z,23.04
2018-05-02T13:11:46.459Z,23.23
2018-05-02T13:17:51.859Z,22.66
2018-05-02T13:23:56.368Z,21.75
2018-05-02T13:30:00.754Z,21.85
2018-05-02T13:36:05.131Z,21.91
2018-05-02T13:42:09.493Z,21.37
2018-05-02T13:48:13.867Z,21.80
2018-05-02T13:54:18.242Z,22.96
2018-05-02T14:13:27.642Z,22.71
2018-05-02T14:19:32.893Z,22.50
2018-05-02T14:25:37.343Z,22.79
2018-05-02T14:31:42.518Z,23.39
2018-05-02T14:37:46.971Z,24.49
2018-05-02T14:43:51.455Z,23.13
2018-05-02T14:49:55.876Z,22.32
2018-05-02T14:56:00.258Z,22.08
2018-05-02T15:02:04.719Z,21.74
2018-05-02T15:08:09.880Z,21.45
2018-05-02T15:14:14.204Z,21.06
2018-05-02T15:20:18.838Z,21.05
2018-05-02T15:26:23.467Z,21.62
2018-05-02T15:32:28.549Z,23.77
2018-05-02T15:38:32.876Z,22.98
2018-05-02T15:44:37.436Z,21.64
2018-05-02T15:50:41.797Z,21.06
2018-05-02T15:56:47.079Z,20.62
2018-05-02T16:02:52.072Z,20.39
2018-05-02T16:08:56.510Z,20.08
2018-05-02T16:15:00.871Z,19.54
2018-05-02T16:21:05.330Z,19.49
2018-05-02T16:27:09.827Z,19.06
2018-05-02T16:33:14.243Z,18.74
2018-05-02T16:39:18.969Z,18.62
2018-05-02T16:45:24.143Z,18.41
2018-05-02T16:51:28.493Z,18.36
2018-05-02T16:57:32.879Z,17.90
2018-05-02T17:03:37.332Z,17.83
2018-05-02T17:09:42.590Z,17.58
2018-05-02T17:15:46.962Z,17.54
2018-05-02T17:21:51.530Z,17.27
2018-05-02T17:27:56.332Z,17.04
2018-05-02T17:34:00.710Z,16.70
2018-05-02T17:40:05.071Z,16.17
2018-05-02T17:46:09.505Z,15.91
2018-05-02T17:52:13.998Z,15.63
2018-05-02T17:58:18.370Z,15.29
2018-05-02T18:04:22.857Z,14.98
2018-05-02T18:10:27.329Z,14.50
2018-05-02T18:16:32.467Z,14.15
2018-05-02T18:22:37.747Z,13.72
2018-05-02T18:28:42.119Z,13.56
2018-05-02T18:34:46.473Z,13.17
2018-05-02T18:40:52.031Z,12.84
2018-05-02T18:46:56.517Z,12.79
2018-05-02T18:53:00.961Z,12.54
2018-05-02T18:59:05.389Z,12.42
2018-05-02T19:05:09.866Z,12.31
2018-05-02T19:11:14.320Z,12.22
2018-05-02T19:17:19.961Z,11.99
2018-05-02T19:23:24.567Z,12.17
2018-05-02T19:29:29.097Z,12.13
2018-05-02T19:35:33.558Z,12.02
2018-05-02T19:48:21.453Z,12.04
2018-05-02T19:54:25.911Z,12.10
2018-05-02T20:00:36.717Z,12.04
2018-05-02T20:06:41.076Z,11.83
2018-05-02T20:12:51.072Z,11.76
2018-05-02T20:18:55.546Z,11.93
2018-05-02T20:25:00.004Z,11.78
2018-05-02T20:31:04.460Z,11.71
2018-05-02T20:37:08.814Z,11.85
2018-05-02T20:43:13.942Z,12.03
2018-05-02T20:49:18.463Z,12.02
2018-05-02T20:55:24.002Z,11.96
2018-05-02T21:01:28.311Z,12.02
2018-05-02T21:07:32.760Z,12.11
2018-05-02T21:13:37.191Z,12.03
2018-05-02T21:19:42.355Z,12.11
2018-05-02T21:25:47.479Z,12.21
2018-05-02T21:31:51.837Z,12.29
2018-05-02T21:37:56.206Z,12.15
2018-05-02T21:44:00.569Z,12.25
2018-05-02T21:50:04.947Z,12.38
2018-05-02T21:56:09.308Z,12.29
2018-05-02T22:02:13.692Z,12.36
2018-05-02T22:08:18.161Z,12.33
2018-05-02T22:14:22.930Z,12.35
2018-05-02T22:20:27.305Z,12.20
2018-05-02T22:26:31.653Z,12.14
2018-05-02T22:32:36.785Z,12.24
2018-05-02T22:38:41.189Z,12.26
2018-05-02T22:44:45.669Z,12.17
2018-05-02T22:50:52.022Z,12.22
2018-05-02T22:56:56.497Z,12.04
2018-05-02T23:03:01.757Z,11.85
2018-05-02T23:09:06.119Z,11.94
2018-05-02T23:15:10.476Z,11.84
2018-05-02T23:21:14.944Z,11.55
2018-05-02T23:27:19.724Z,11.43
2018-05-02T23:33:24.212Z,11.34
2018-05-02T23:39:28.580Z,11.11
2018-05-02T23:45:32.939Z,11.21
2018-05-02T23:51:38.109Z,11.11
2018-05-02T23:57:42.482Z,11.04
